Time;durP1;ratioP1;P1;durP2;ratioP2;P2;SDS_P1;SDS_P2;PMS_P1;PMS_P2;Temp;Humidity;BMP_temperature;BMP_pressure;BME280_temperature;BME280_humidity;BME280_pressure;Samples;Min_cycle;Max_cycle;Signal;HPM_P1;HPM_P2
2020/12/25 00:01:59;;;;;;;2.73;2.00;;;6.10;99.90;;;;;;5098577;28;20381;-81
2020/12/25 00:04:25;;;;;;;4.03;3.63;;;6.20;99.90;;;;;;5099344;28;20162;-81
2020/12/25 00:06:51;;;;;;;2.40;2.20;;;6.10;99.90;;;;;;5098090;28;20177;-82
2020/12/25 00:09:17;;;;;;;2.53;2.40;;;6.20;99.90;;;;;;5098469;28;20216;-82
2020/12/25 00:11:43;;;;;;;2.80;2.60;;;6.00;99.90;;;;;;5098466;28;20244;-80
2020/12/25 00:14:09;;;;;;;2.97;2.70;;;6.00;99.90;;;;;;5098601;28;20446;-81
2020/12/25 00:16:36;;;;;;;2.37;2.10;;;6.00;99.90;;;;;;5098228;28;20363;-81
2020/12/25 00:19:03;;;;;;;2.70;2.50;;;6.00;99.90;;;;;;5097916;28;20456;-80
2020/12/25 00:21:28;;;;;;;2.13;2.00;;;6.00;99.90;;;;;;5097042;28;20456;-81
2020/12/25 00:23:54;;;;;;;3.10;2.37;;;6.00;99.90;;;;;;5098160;28;20389;-82
2020/12/25 00:26:25;;;;;;;2.43;2.23;;;6.00;99.90;;;;;;5079707;28;20167;-81
2020/12/25 00:28:51;;;;;;;5.57;2.40;;;6.10;99.90;;;;;;5098172;28;20174;-82
2020/12/25 00:31:30;;;;;;;3.30;2.23;;;6.00;99.90;;;;;;5112987;28;20415;-81
2020/12/25 00:33:58;;;;;;;2.43;2.23;;;6.00;99.90;;;;;;5112453;28;20393;-83
2020/12/25 00:36:26;;;;;;;6.47;3.13;;;6.00;99.90;;;;;;5098286;28;20388;-82
2020/12/25 00:38:52;;;;;;;3.00;2.80;;;5.90;99.90;;;;;;5097987;28;20486;-82
2020/12/25 00:41:18;;;;;;;2.73;2.53;;;6.00;99.90;;;;;;5099136;28;20396;-83
2020/12/25 00:43:44;;;;;;;2.50;2.30;;;6.00;99.90;;;;;;5098084;28;20397;-82
2020/12/25 00:46:14;;;;;;;2.60;2.40;;;5.90;99.90;;;;;;5097725;28;20527;-82
2020/12/25 00:48:40;;;;;;;2.87;2.67;;;5.90;99.90;;;;;;5080419;28;20170;-82
2020/12/25 00:51:13;;;;;;;2.90;2.60;;;5.90;99.90;;;;;;5097920;28;20411;-82
2020/12/25 00:53:39;;;;;;;3.53;2.40;;;5.90;99.90;;;;;;5097638;28;20483;-82
2020/12/25 00:56:05;;;;;;;5.23;4.03;;;5.90;99.90;;;;;;5097880;28;20857;-82
2020/12/25 00:58:31;;;;;;;3.17;2.73;;;5.90;99.90;;;;;;5097055;28;20482;-82
2020/12/25 01:00:56;;;;;;;3.27;2.97;;;5.90;99.90;;;;;;5097577;28;20405;-82
2020/12/25 01:03:22;;;;;;;2.57;2.37;;;5.90;99.90;;;;;;5096244;28;20492;-82
2020/12/25 01:05:48;;;;;;;2.90;2.70;;;5.90;99.90;;;;;;5096936;28;20611;-82
2020/12/25 01:08:14;;;;;;;4.00;2.70;;;5.90;99.90;;;;;;5096921;28;20645;-82
2020/12/25 01:10:39;;;;;;;3.50;2.60;;;5.90;99.90;;;;;;5097531;28;20167;-83
2020/12/25 01:13:06;;;;;;;3.50;2.33;;;5.90;99.90;;;;;;5079275;28;20267;-83
2020/12/25 01:15:31;;;;;;;2.67;2.47;;;5.90;99.90;;;;;;5062824;28;20232;-82
2020/12/25 01:17:57;;;;;;;2.67;2.43;;;5.90;99.90;;;;;;5097179;28;20423;-82
2020/12/25 01:20:23;;;;;;;2.37;2.10;;;6.00;99.90;;;;;;5096907;28;20258;-83
2020/12/25 01:22:49;;;;;;;6.10;3.40;;;6.00;99.90;;;;;;5097483;28;20224;-82
2020/12/25 01:25:15;;;;;;;3.50;2.83;;;6.00;99.90;;;;;;5097676;28;20842;-82
2020/12/25 01:27:40;;;;;;;2.40;2.20;;;6.00;99.90;;;;;;5096547;28;20171;-82
2020/12/25 01:30:06;;;;;;;2.90;2.20;;;6.00;99.90;;;;;;5078102;28;20257;-82
2020/12/25 01:32:34;;;;;;;12.13;2.97;;;6.00;99.90;;;;;;5097167;28;20162;-82
2020/12/25 01:35:02;;;;;;;3.00;2.73;;;6.00;99.90;;;;;;5097021;28;20469;-83
2020/12/25 01:37:28;;;;;;;2.50;2.30;;;6.00;99.90;;;;;;5097947;28;20393;-82
2020/12/25 01:39:54;;;;;;;2.53;2.10;;;6.00;99.90;;;;;;5061852;28;20747;-83
2020/12/25 01:42:19;;;;;;;2.17;2.00;;;6.10;99.90;;;;;;5098132;28;20162;-83
2020/12/25 01:44:45;;;;;;;4.07;2.33;;;6.10;99.90;;;;;;5097344;28;20191;-82
2020/12/25 01:47:13;;;;;;;2.40;2.20;;;6.00;99.90;;;;;;5097091;28;20159;-83
2020/12/25 01:49:39;;;;;;;2.30;2.10;;;5.90;99.90;;;;;;5098784;28;20223;-83
2020/12/25 01:52:05;;;;;;;1.80;1.70;;;5.90;99.90;;;;;;5099163;28;20397;-83
2020/12/25 01:54:31;;;;;;;4.37;3.20;;;5.80;99.90;;;;;;5081482;28;20514;-83
2020/12/25 01:56:57;;;;;;;2.77;2.57;;;5.90;99.90;;;;;;5098726;28;20170;-82
2020/12/25 01:59:23;;;;;;;5.43;3.30;;;5.90;99.90;;;;;;5081373;28;20419;-83
2020/12/25 02:01:50;;;;;;;3.10;2.90;;;5.90;99.90;;;;;;5108325;28;20163;-80
2020/12/25 02:04:16;;;;;;;3.03;2.20;;;6.00;99.90;;;;;;5107583;28;20449;-83
2020/12/25 02:06:41;;;;;;;2.37;2.17;;;5.90;99.90;;;;;;5103415;28;20396;-83
2020/12/25 02:09:07;;;;;;;4.13;2.77;;;5.90;99.90;;;;;;5089204;28;20151;-81
2020/12/25 02:11:35;;;;;;;2.80;2.13;;;5.90;99.90;;;;;;5117909;28;20221;-80
2020/12/25 02:14:01;;;;;;;3.00;2.33;;;5.80;99.90;;;;;;5117202;28;20186;-80
2020/12/25 02:16:27;;;;;;;2.50;2.23;;;5.80;99.90;;;;;;5112556;28;20384;-82
2020/12/25 02:18:53;;;;;;;2.80;2.60;;;5.80;99.90;;;;;;5062032;28;20437;-82
2020/12/25 02:21:18;;;;;;;1.77;1.67;;;5.80;99.90;;;;;;5078796;28;20468;-83
2020/12/25 02:23:44;;;;;;;2.20;2.00;;;5.90;99.90;;;;;;5079290;28;20155;-83
2020/12/25 02:26:10;;;;;;;2.67;2.47;;;5.90;99.90;;;;;;5096324;28;20166;-82
2020/12/25 02:28:36;;;;;;;2.60;2.40;;;5.90;99.90;;;;;;5078589;28;20307;-82
2020/12/25 02:31:03;;;;;;;2.90;2.70;;;5.90;99.90;;;;;;5078562;28;20404;-82
2020/12/25 02:33:29;;;;;;;6.60;2.93;;;5.90;99.90;;;;;;5078660;28;20163;-82
2020/12/25 02:35:54;;;;;;;3.10;2.90;;;5.80;99.90;;;;;;5096310;28;20910;-82
2020/12/25 02:38:20;;;;;;;4.90;2.80;;;5.80;99.90;;;;;;5095943;28;20188;-83
2020/12/25 02:40:46;;;;;;;3.00;2.80;;;5.90;99.90;;;;;;5096044;28;20226;-83
2020/12/25 02:43:12;;;;;;;4.30;2.33;;;5.80;99.90;;;;;;5096236;28;20170;-83
2020/12/25 02:45:38;;;;;;;2.60;2.10;;;5.70;99.90;;;;;;5078563;28;20170;-82
2020/12/25 02:48:03;;;;;;;3.97;2.50;;;5.80;99.90;;;;;;5096335;28;20170;-83
2020/12/25 02:50:29;;;;;;;7.43;3.53;;;5.70;99.90;;;;;;5078426;28;20197;-82
2020/12/25 02:52:55;;;;;;;4.40;2.47;;;5.70;99.90;;;;;;5078457;28;20482;-83
2020/12/25 02:55:24;;;;;;;8.47;2.90;;;5.80;99.90;;;;;;5096314;28;20186;-82
2020/12/25 02:57:50;;;;;;;2.70;2.50;;;5.80;99.90;;;;;;5095700;28;20380;-83
2020/12/25 03:00:15;;;;;;;4.33;3.63;;;5.80;99.90;;;;;;5096818;28;20159;-83
2020/12/25 03:02:41;;;;;;;6.70;2.40;;;5.80;99.90;;;;;;5096038;28;20388;-82
2020/12/25 03:05:07;;;;;;;2.90;2.53;;;5.80;99.90;;;;;;5096634;28;20163;-82
2020/12/25 03:07:33;;;;;;;3.37;2.63;;;5.80;99.90;;;;;;5096343;28;20513;-83
2020/12/25 03:09:58;;;;;;;5.73;3.23;;;5.80;99.90;;;;;;5078926;28;20269;-83
2020/12/25 03:12:24;;;;;;;3.23;2.60;;;5.80;99.90;;;;;;5112953;28;20159;-81
2020/12/25 03:14:50;;;;;;;5.40;2.97;;;5.70;99.90;;;;;;5116837;28;20209;-81
2020/12/25 03:17:15;;;;;;;3.10;2.90;;;5.70;99.90;;;;;;5099293;28;20186;-82
2020/12/25 03:19:41;;;;;;;9.63;2.97;;;5.70;99.90;;;;;;5111280;28;20210;-82
2020/12/25 03:22:07;;;;;;;5.60;3.07;;;5.70;99.90;;;;;;5106998;28;20190;-82
2020/12/25 03:24:33;;;;;;;3.97;2.97;;;5.60;99.90;;;;;;5096152;28;20178;-82
2020/12/25 03:26:59;;;;;;;2.70;2.50;;;5.70;99.90;;;;;;5080784;28;20159;-82
2020/12/25 03:29:24;;;;;;;4.13;2.90;;;5.70;99.90;;;;;;5081734;28;20170;-83
2020/12/25 03:31:50;;;;;;;5.13;3.00;;;5.70;99.90;;;;;;5081463;28;20596;-82
2020/12/25 03:34:16;;;;;;;4.60;3.27;;;5.70;99.90;;;;;;5063651;28;20186;-82
2020/12/25 03:36:43;;;;;;;4.13;3.73;;;5.70;99.90;;;;;;5099367;28;20227;-82
2020/12/25 03:39:09;;;;;;;3.70;2.80;;;5.70;99.90;;;;;;5099117;28;20190;-82
2020/12/25 03:41:35;;;;;;;4.47;3.83;;;5.70;99.90;;;;;;5099066;28;20413;-82
2020/12/25 03:44:01;;;;;;;3.30;3.00;;;5.60;99.90;;;;;;5095607;28;20404;-81
2020/12/25 03:46:35;;;;;;;2.97;2.60;;;5.60;99.90;;;;;;5116460;28;20405;-83
2020/12/25 03:49:03;;;;;;;3.40;3.10;;;5.60;99.90;;;;;;5100319;28;20529;-82
2020/12/25 03:51:29;;;;;;;4.17;3.23;;;5.60;99.90;;;;;;5082280;28;20440;-83
2020/12/25 03:53:54;;;;;;;3.80;3.50;;;5.60;99.90;;;;;;5099108;28;20747;-82
2020/12/25 03:56:20;;;;;;;3.17;2.87;;;5.50;99.90;;;;;;5099869;28;20190;-82
2020/12/25 03:58:46;;;;;;;2.63;2.40;;;5.60;99.90;;;;;;5098820;28;20198;-82
2020/12/25 04:01:12;;;;;;;3.97;3.03;;;5.60;99.90;;;;;;5081080;28;20400;-82
2020/12/25 04:03:38;;;;;;;3.53;3.20;;;5.50;99.90;;;;;;5100047;28;20162;-82
2020/12/25 04:06:04;;;;;;;3.47;2.90;;;5.60;99.90;;;;;;5063884;28;20556;-82
2020/12/25 04:08:29;;;;;;;5.83;2.50;;;5.60;99.90;;;;;;5098120;28;20635;-81
2020/12/25 04:10:55;;;;;;;4.30;3.50;;;5.60;99.90;;;;;;5098800;28;20462;-81
2020/12/25 04:13:22;;;;;;;8.60;2.70;;;5.60;99.90;;;;;;5099138;28;20216;-82
2020/12/25 04:15:48;;;;;;;9.23;3.30;;;5.60;99.90;;;;;;5081685;28;20162;-82
2020/12/25 04:18:14;;;;;;;4.20;2.67;;;5.70;99.90;;;;;;5097950;28;20436;-82
2020/12/25 04:20:40;;;;;;;2.70;2.50;;;5.60;99.90;;;;;;5097900;28;20446;-82
2020/12/25 04:23:06;;;;;;;4.13;3.70;;;5.60;99.90;;;;;;5080786;28;20242;-82
2020/12/25 04:25:32;;;;;;;4.97;3.67;;;5.60;99.90;;;;;;5098190;28;20412;-82
2020/12/25 04:27:58;;;;;;;6.97;3.53;;;5.60;99.90;;;;;;5098669;28;20389;-81
2020/12/25 04:30:24;;;;;;;4.27;2.87;;;5.60;99.90;;;;;;5079964;28;20259;-82
2020/12/25 04:32:49;;;;;;;4.13;3.50;;;5.60;99.90;;;;;;5098644;28;20190;-82
2020/12/25 04:35:15;;;;;;;2.53;2.33;;;5.60;99.90;;;;;;5097373;28;20211;-81
2020/12/25 04:37:41;;;;;;;4.40;3.37;;;5.50;99.90;;;;;;5096441;28;20516;-81
2020/12/25 04:40:07;;;;;;;5.30;3.50;;;5.60;99.90;;;;;;5079248;28;20620;-81
2020/12/25 04:42:40;;;;;;;3.53;3.20;;;5.50;99.90;;;;;;5079418;28;20556;-80
2020/12/25 04:45:06;;;;;;;4.73;3.80;;;5.50;99.90;;;;;;5097740;28;20547;-80
2020/12/25 04:47:34;;;;;;;3.13;2.60;;;5.50;99.90;;;;;;5094003;28;20421;-82
2020/12/25 04:50:01;;;;;;;5.13;3.73;;;5.60;99.90;;;;;;5096938;28;20401;-82
2020/12/25 04:52:27;;;;;;;5.53;3.17;;;5.50;99.90;;;;;;5097311;28;20422;-82
2020/12/25 04:54:52;;;;;;;4.10;3.70;;;5.60;99.90;;;;;;5097839;28;20961;-82
2020/12/25 04:57:18;;;;;;;3.57;3.27;;;5.60;99.90;;;;;;5098041;28;20185;-82
2020/12/25 04:59:44;;;;;;;9.30;4.23;;;5.60;99.90;;;;;;5105304;28;20654;-82
2020/12/25 05:02:10;;;;;;;4.43;2.83;;;5.60;99.90;;;;;;5105245;28;20563;-82
2020/12/25 05:04:35;;;;;;;3.37;3.07;;;5.60;99.90;;;;;;5106061;28;20579;-83
2020/12/25 05:07:02;;;;;;;9.47;5.13;;;5.60;99.90;;;;;;5106064;28;20167;-82
2020/12/25 05:09:29;;;;;;;4.43;3.83;;;5.60;99.90;;;;;;5106276;28;20171;-83
2020/12/25 05:11:57;;;;;;;5.20;3.50;;;5.50;99.90;;;;;;5083666;28;20480;-82
2020/12/25 05:14:28;;;;;;;4.00;3.60;;;5.60;99.90;;;;;;5079757;28;20416;-83
2020/12/25 05:16:56;;;;;;;4.93;3.47;;;5.50;99.90;;;;;;5098935;28;20877;-83
2020/12/25 05:19:30;;;;;;;3.33;3.10;;;5.50;99.90;;;;;;5098417;28;20437;-82
2020/12/25 05:21:58;;;;;;;3.60;2.70;;;5.50;99.90;;;;;;5098196;28;20404;-83
2020/12/25 05:24:25;;;;;;;4.53;4.13;;;5.50;99.90;;;;;;5098986;28;20776;-83
2020/12/25 05:26:54;;;;;;;3.80;3.00;;;5.50;99.90;;;;;;5097875;28;20389;-82
2020/12/25 05:29:22;;;;;;;3.83;2.67;;;5.50;99.90;;;;;;5098592;28;20476;-82
2020/12/25 05:31:50;;;;;;;3.70;3.40;;;5.50;99.90;;;;;;5097547;28;20371;-82
2020/12/25 05:34:18;;;;;;;4.10;3.80;;;5.50;99.90;;;;;;5097849;28;20392;-83
2020/12/25 05:36:53;;;;;;;3.67;3.37;;;5.60;99.90;;;;;;5097619;28;20416;-82
2020/12/25 05:39:26;;;;;;;4.37;3.10;;;5.50;99.90;;;;;;5097109;28;20679;-82
2020/12/25 05:41:57;;;;;;;5.47;4.20;;;5.40;99.90;;;;;;5079074;28;20384;-82
2020/12/25 05:44:24;;;;;;;4.27;3.83;;;5.50;99.90;;;;;;5097517;28;20456;-82
2020/12/25 05:46:50;;;;;;;4.20;3.80;;;5.50;99.90;;;;;;5100512;28;20388;-82
2020/12/25 05:49:16;;;;;;;2.47;2.27;;;5.50;99.90;;;;;;5100305;28;20389;-83
2020/12/25 05:51:49;;;;;;;4.53;2.93;;;5.50;99.90;;;;;;5062234;28;20204;-81
2020/12/25 05:54:20;;;;;;;5.37;3.93;;;5.50;99.90;;;;;;5078416;28;20151;-82
2020/12/25 05:56:50;;;;;;;3.70;3.03;;;5.50;99.90;;;;;;5097637;28;20381;-83
2020/12/25 05:59:22;;;;;;;3.87;3.20;;;5.50;99.90;;;;;;5097128;28;20824;-82
2020/12/25 06:01:48;;;;;;;4.10;3.70;;;5.60;99.90;;;;;;5097150;28;20472;-82
2020/12/25 06:04:14;;;;;;;6.97;4.30;;;5.60;99.90;;;;;;5097112;28;20400;-82
2020/12/25 06:06:42;;;;;;;6.07;4.50;;;5.60;99.90;;;;;;5097528;28;20389;-82
2020/12/25 06:09:14;;;;;;;5.07;4.50;;;5.50;99.90;;;;;;5097761;28;20364;-82
2020/12/25 06:11:44;;;;;;;6.57;4.57;;;5.60;99.90;;;;;;5097789;28;20363;-83
2020/12/25 06:14:10;;;;;;;7.70;4.60;;;5.50;99.90;;;;;;5080019;28;20389;-83
2020/12/25 06:16:41;;;;;;;5.00;3.60;;;5.50;99.90;;;;;;5099023;28;20428;-83
2020/12/25 06:19:20;;;;;;;7.27;4.83;;;5.50;99.90;;;;;;5099190;28;20228;-83
2020/12/25 06:21:56;;;;;;;8.07;4.17;;;5.60;99.90;;;;;;5099999;28;20506;-82
2020/12/25 06:24:30;;;;;;;10.03;4.47;;;5.60;99.90;;;;;;5101994;28;20388;-83
2020/12/25 06:27:00;;;;;;;6.40;4.70;;;5.60;99.90;;;;;;5103259;28;20749;-82
2020/12/25 06:29:27;;;;;;;4.67;3.93;;;5.70;99.90;;;;;;5106843;28;20409;-80
2020/12/25 06:31:56;;;;;;;3.83;3.50;;;5.60;99.90;;;;;;5118183;28;20381;-80
2020/12/25 06:34:33;;;;;;;11.43;4.37;;;5.60;99.90;;;;;;5118851;28;20478;-80
2020/12/25 06:37:07;;;;;;;6.93;3.67;;;5.70;99.90;;;;;;5107712;28;20453;-82
2020/12/25 06:39:32;;;;;;;10.53;4.80;;;5.70;99.90;;;;;;5096672;28;20440;-81
2020/12/25 06:41:58;;;;;;;4.23;3.87;;;5.70;99.90;;;;;;5097006;28;20763;-81
2020/12/25 06:44:29;;;;;;;5.87;4.40;;;5.70;99.90;;;;;;5096573;28;20170;-81
2020/12/25 06:47:02;;;;;;;3.60;3.30;;;5.70;99.90;;;;;;5096202;28;20596;-82
2020/12/25 06:49:35;;;;;;;6.70;3.97;;;5.60;99.90;;;;;;5096244;28;20393;-82
2020/12/25 06:52:01;;;;;;;7.53;3.80;;;5.60;99.90;;;;;;5095691;28;20877;-81
2020/12/25 06:54:27;;;;;;;3.63;3.23;;;5.60;99.90;;;;;;5078926;28;20371;-81
2020/12/25 06:56:54;;;;;;;3.80;3.20;;;5.50;99.90;;;;;;5109949;28;20432;-81
2020/12/25 06:59:22;;;;;;;3.70;3.23;;;5.50;99.90;;;;;;5113259;28;20202;-83
2020/12/25 07:01:49;;;;;;;3.83;3.20;;;5.50;99.90;;;;;;5101047;28;20880;-82
2020/12/25 07:04:31;;;;;;;3.47;3.07;;;5.60;99.90;;;;;;5100624;28;20869;-82
2020/12/25 07:07:06;;;;;;;7.43;3.80;;;5.50;99.90;;;;;;5099956;28;20389;-82
2020/12/25 07:09:47;;;;;;;8.47;4.90;;;5.50;99.90;;;;;;5100329;28;20461;-82
2020/12/25 07:12:23;;;;;;;7.00;3.67;;;5.60;99.90;;;;;;5099462;28;20449;-82
2020/12/25 07:14:49;;;;;;;6.27;4.30;;;5.60;99.90;;;;;;5099188;28;20421;-82
2020/12/25 07:17:16;;;;;;;4.70;4.30;;;5.50;99.90;;;;;;5081529;28;20445;-82
2020/12/25 07:19:43;;;;;;;7.20;4.00;;;5.50;99.90;;;;;;5099147;28;20456;-81
2020/12/25 07:22:09;;;;;;;5.57;4.40;;;5.60;99.90;;;;;;5081949;28;20400;-83
2020/12/25 07:24:40;;;;;;;3.60;3.30;;;5.50;99.90;;;;;;5099448;28;20411;-82
2020/12/25 07:27:07;;;;;;;6.27;3.80;;;5.50;99.90;;;;;;5099591;28;20396;-82
2020/12/25 07:29:33;;;;;;;5.17;4.27;;;5.50;99.90;;;;;;5102380;28;20400;-82
2020/12/25 07:31:59;;;;;;;4.17;3.87;;;5.50;99.90;;;;;;5107357;28;20407;-82
2020/12/25 07:34:26;;;;;;;4.20;3.87;;;5.40;99.90;;;;;;5106342;28;20401;-82
2020/12/25 07:36:53;;;;;;;4.50;4.07;;;5.40;99.90;;;;;;5105133;28;20524;-82
2020/12/25 07:39:20;;;;;;;4.13;3.73;;;5.40;99.90;;;;;;5102101;28;20925;-83
2020/12/25 07:41:46;;;;;;;6.67;4.50;;;5.40;99.90;;;;;;5104087;28;20400;-83
2020/12/25 07:44:12;;;;;;;4.40;3.97;;;5.40;99.90;;;;;;5105122;28;20471;-82
2020/12/25 07:46:39;;;;;;;9.33;4.37;;;5.30;99.90;;;;;;5103711;28;20163;-83
2020/12/25 07:49:06;;;;;;;7.53;4.23;;;5.30;99.90;;;;;;5082310;28;20169;-83
2020/12/25 07:51:32;;;;;;;7.23;4.30;;;5.40;99.90;;;;;;5099731;28;20844;-82
2020/12/25 07:54:01;;;;;;;4.37;3.33;;;5.50;99.90;;;;;;5082456;28;20450;-82
2020/12/25 07:56:29;;;;;;;4.20;3.43;;;5.50;99.90;;;;;;5099202;28;20412;-82
2020/12/25 07:58:56;;;;;;;18.13;6.23;;;5.60;99.90;;;;;;5099283;28;20763;-82
2020/12/25 08:01:24;;;;;;;4.40;3.93;;;5.50;99.90;;;;;;5099342;28;20405;-82
2020/12/25 08:03:51;;;;;;;4.30;3.90;;;5.50;99.90;;;;;;5099026;28;20393;-83
2020/12/25 08:06:20;;;;;;;5.20;4.23;;;5.50;99.90;;;;;;5097937;28;20419;-83
2020/12/25 08:08:49;;;;;;;6.13;5.47;;;5.60;99.90;;;;;;5098682;28;20422;-83
2020/12/25 08:11:17;;;;;;;4.47;4.07;;;5.60;99.90;;;;;;5100027;28;20453;-83
2020/12/25 08:13:47;;;;;;;3.60;3.30;;;5.60;99.90;;;;;;5098623;28;20405;-81
2020/12/25 08:16:14;;;;;;;4.70;3.50;;;5.60;99.90;;;;;;5098879;28;20396;-83
2020/12/25 08:18:41;;;;;;;3.67;3.07;;;5.50;99.90;;;;;;5097703;28;20612;-83
2020/12/25 08:21:07;;;;;;;3.47;3.13;;;5.50;99.90;;;;;;5097069;28;20430;-82
2020/12/25 08:23:34;;;;;;;3.93;3.63;;;5.50;99.90;;;;;;5079798;28;20485;-82
2020/12/25 08:26:03;;;;;;;5.20;3.63;;;5.60;99.90;;;;;;5097527;28;20433;-83
2020/12/25 08:28:31;;;;;;;4.13;3.73;;;5.60;99.90;;;;;;5098496;28;20400;-82
2020/12/25 08:30:58;;;;;;;7.40;2.90;;;5.60;99.90;;;;;;5098426;28;20396;-82
2020/12/25 08:33:25;;;;;;;4.57;3.77;;;5.50;99.90;;;;;;5098844;28;20469;-83
2020/12/25 08:35:52;;;;;;;3.90;3.50;;;5.60;99.90;;;;;;5097748;28;20690;-83
2020/12/25 08:38:18;;;;;;;3.27;2.90;;;5.60;99.90;;;;;;5079687;28;20444;-83
2020/12/25 08:40:46;;;;;;;3.90;3.47;;;5.60;99.90;;;;;;5099081;28;20866;-82
2020/12/25 08:43:15;;;;;;;4.13;3.40;;;5.60;99.90;;;;;;5079820;28;20367;-82
2020/12/25 08:45:54;;;;;;;4.63;4.13;;;5.60;99.90;;;;;;5098431;28;20389;-83
2020/12/25 08:48:22;;;;;;;2.53;2.30;;;5.50;99.90;;;;;;5098146;28;20393;-82
2020/12/25 08:50:48;;;;;;;2.10;1.90;;;5.50;99.90;;;;;;5099545;28;20393;-82
2020/12/25 08:53:19;;;;;;;2.70;2.50;;;5.50;99.90;;;;;;5097877;28;20425;-83
2020/12/25 08:55:54;;;;;;;3.90;3.60;;;5.50;99.90;;;;;;5098429;28;20400;-83
2020/12/25 08:58:22;;;;;;;12.63;10.20;;;5.50;99.90;;;;;;5097867;28;20439;-82
2020/12/25 09:00:57;;;;;;;3.77;3.47;;;5.50;99.90;;;;;;5097817;28;20372;-83
2020/12/25 09:03:22;;;;;;;4.40;3.47;;;5.40;99.90;;;;;;5097571;28;20416;-83
2020/12/25 09:05:49;;;;;;;2.57;2.33;;;5.40;99.90;;;;;;5098258;28;20397;-83
2020/12/25 09:08:15;;;;;;;2.57;2.37;;;5.50;99.90;;;;;;5098897;28;20166;-83
2020/12/25 09:10:41;;;;;;;2.50;2.30;;;5.50;99.90;;;;;;5099310;28;20372;-83
2020/12/25 09:13:07;;;;;;;3.13;2.93;;;5.50;99.90;;;;;;5098406;28;20185;-83
2020/12/25 09:15:32;;;;;;;3.87;2.70;;;5.40;99.90;;;;;;5097633;28;20173;-83
2020/12/25 09:17:58;;;;;;;3.27;2.97;;;5.40;99.90;;;;;;5097201;28;20170;-82
2020/12/25 09:20:24;;;;;;;3.97;2.50;;;5.40;99.90;;;;;;5096677;28;20226;-82
2020/12/25 09:22:50;;;;;;;3.73;3.43;;;5.30;99.90;;;;;;5096565;28;20158;-83
2020/12/25 09:25:16;;;;;;;2.80;2.60;;;5.30;99.90;;;;;;5079365;28;20156;-82
2020/12/25 09:27:41;;;;;;;2.30;2.07;;;5.30;99.90;;;;;;5098182;28;20381;-82
2020/12/25 09:30:07;;;;;;;4.40;2.93;;;5.40;99.90;;;;;;5097034;28;20212;-83
2020/12/25 09:32:33;;;;;;;2.60;2.40;;;5.50;99.90;;;;;;5097376;28;20158;-82
2020/12/25 09:34:58;;;;;;;6.00;2.60;;;5.50;99.90;;;;;;5098030;28;20175;-83
2020/12/25 09:37:24;;;;;;;2.90;2.70;;;5.50;99.90;;;;;;5098175;28;20158;-82
2020/12/25 09:39:50;;;;;;;6.80;3.10;;;5.60;99.90;;;;;;5097070;28;20279;-83
2020/12/25 09:42:16;;;;;;;5.20;2.70;;;5.70;99.90;;;;;;5078835;28;20159;-82
2020/12/25 09:44:41;;;;;;;2.73;2.53;;;5.70;99.90;;;;;;5096909;28;20159;-83
2020/12/25 09:47:07;;;;;;;2.60;2.40;;;5.90;99.90;;;;;;5097758;28;20151;-83
2020/12/25 09:49:33;;;;;;;5.50;3.57;;;6.00;99.90;;;;;;5097983;28;20224;-82
2020/12/25 09:52:03;;;;;;;3.10;2.70;;;6.00;99.90;;;;;;5097600;28;20165;-84
2020/12/25 09:54:29;;;;;;;2.70;2.50;;;6.30;99.90;;;;;;5107747;28;20188;-82
2020/12/25 09:56:55;;;;;;;3.60;2.80;;;6.60;99.90;;;;;;5112455;28;20412;-80
2020/12/25 09:59:23;;;;;;;2.67;2.17;;;7.00;99.90;;;;;;5113799;28;20202;-80
2020/12/25 10:01:49;;;;;;;3.30;3.00;;;7.90;99.90;;;;;;5113869;28;20262;-80
2020/12/25 10:04:15;;;;;;;4.33;3.70;;;9.20;99.90;;;;;;5098979;28;20731;-83
2020/12/25 10:06:41;;;;;;;2.97;2.70;;;9.40;99.90;;;;;;5097364;28;20396;-82
2020/12/25 10:09:06;;;;;;;3.03;2.83;;;10.40;99.90;;;;;;5097322;28;20163;-82
2020/12/25 10:11:32;;;;;;;4.17;2.97;;;10.70;99.90;;;;;;5078790;28;20167;-83
2020/12/25 10:13:58;;;;;;;7.13;3.50;;;11.20;99.90;;;;;;5096341;28;20186;-82
2020/12/25 10:16:23;;;;;;;2.53;2.30;;;11.50;99.90;;;;;;5079473;28;20170;-83
2020/12/25 10:18:49;;;;;;;3.33;2.57;;;11.70;99.90;;;;;;5101762;28;20186;-80
2020/12/25 10:21:18;;;;;;;6.40;3.50;;;11.00;99.90;;;;;;5107897;28;20229;-82
2020/12/25 10:23:44;;;;;;;4.40;2.90;;;10.00;99.90;;;;;;5097345;28;20178;-82
2020/12/25 10:26:12;;;;;;;2.87;2.67;;;9.10;99.90;;;;;;5078545;28;20435;-82
2020/12/25 10:28:39;;;;;;;2.20;2.00;;;8.40;99.90;;;;;;5097292;28;20446;-82
2020/12/25 10:31:05;;;;;;;2.53;1.90;;;8.10;99.90;;;;;;5096501;28;20422;-83
2020/12/25 10:33:31;;;;;;;2.60;1.60;;;7.80;99.90;;;;;;5096534;28;20424;-82
2020/12/25 10:35:57;;;;;;;6.93;3.97;;;7.40;99.90;;;;;;5095736;28;20397;-82
2020/12/25 10:38:23;;;;;;;10.73;2.63;;;7.10;99.90;;;;;;5096642;28;20419;-82
2020/12/25 10:40:50;;;;;;;3.50;2.60;;;6.90;99.90;;;;;;5097278;28;20409;-82
2020/12/25 10:43:16;;;;;;;4.10;3.43;;;6.70;99.90;;;;;;5097192;28;20158;-83
2020/12/25 10:45:42;;;;;;;4.80;2.93;;;6.70;99.90;;;;;;5078278;28;20745;-82
2020/12/25 10:48:08;;;;;;;12.80;4.17;;;6.80;99.90;;;;;;5096501;28;20167;-83
2020/12/25 10:50:34;;;;;;;6.27;3.23;;;6.60;99.90;;;;;;5096062;28;20169;-82
2020/12/25 10:53:00;;;;;;;2.47;2.27;;;6.60;99.90;;;;;;5096062;28;20385;-83
2020/12/25 10:55:25;;;;;;;2.60;2.40;;;6.40;99.90;;;;;;5077986;28;20208;-81
2020/12/25 10:57:51;;;;;;;3.63;2.60;;;6.30;99.90;;;;;;5097029;28;20209;-83
2020/12/25 11:00:17;;;;;;;3.23;3.03;;;6.20;99.90;;;;;;5096506;28;20220;-83
2020/12/25 11:02:43;;;;;;;5.30;2.57;;;6.20;99.90;;;;;;5078179;28;20170;-83
2020/12/25 11:05:08;;;;;;;3.87;2.27;;;6.30;99.90;;;;;;5096970;28;20487;-83
2020/12/25 11:07:34;;;;;;;6.67;2.90;;;6.30;99.90;;;;;;5097351;28;20255;-83
2020/12/25 11:10:00;;;;;;;4.27;2.07;;;6.40;99.90;;;;;;5096967;28;20159;-83
2020/12/25 11:12:26;;;;;;;3.60;2.00;;;6.40;99.90;;;;;;5096536;28;20185;-83
2020/12/25 11:14:51;;;;;;;2.27;2.07;;;6.30;99.90;;;;;;5097508;28;20250;-83
2020/12/25 11:17:17;;;;;;;2.70;2.47;;;6.20;99.90;;;;;;5097436;28;20514;-83
2020/12/25 11:19:43;;;;;;;3.60;2.53;;;6.40;99.90;;;;;;5105067;28;20214;-82
2020/12/25 11:22:17;;;;;;;5.13;3.17;;;6.40;99.90;;;;;;5098131;28;20257;-82
2020/12/25 11:24:43;;;;;;;5.93;2.83;;;6.20;99.90;;;;;;5114880;28;20392;-81
2020/12/25 11:27:10;;;;;;;2.63;2.43;;;6.30;99.90;;;;;;5116138;28;20385;-81
2020/12/25 11:29:36;;;;;;;2.10;1.93;;;6.10;99.90;;;;;;5098745;28;20389;-82
2020/12/25 11:32:02;;;;;;;5.00;2.70;;;6.20;99.90;;;;;;5116006;28;20408;-82
2020/12/25 11:34:27;;;;;;;2.47;2.17;;;6.20;99.90;;;;;;5114437;28;20421;-82
2020/12/25 11:36:53;;;;;;;2.43;2.20;;;6.00;99.90;;;;;;5116264;28;20382;-83
2020/12/25 11:39:19;;;;;;;4.03;2.00;;;6.10;99.90;;;;;;5115331;28;20197;-82
2020/12/25 11:41:45;;;;;;;2.37;2.17;;;6.10;99.90;;;;;;5115378;28;20189;-82
2020/12/25 11:44:10;;;;;;;4.50;2.27;;;6.00;99.90;;;;;;5113123;28;20174;-82
2020/12/25 11:46:36;;;;;;;2.67;2.47;;;5.90;99.90;;;;;;5117311;28;20159;-82
2020/12/25 11:49:06;;;;;;;3.80;3.17;;;5.90;99.90;;;;;;5119616;28;20242;-82
2020/12/25 11:51:32;;;;;;;2.50;2.30;;;6.00;99.90;;;;;;5106146;28;20174;-83
2020/12/25 11:53:58;;;;;;;2.03;1.90;;;6.00;99.90;;;;;;5100342;28;20503;-83
2020/12/25 11:56:26;;;;;;;6.77;3.87;;;6.00;99.90;;;;;;5099993;28;20504;-82
2020/12/25 11:58:53;;;;;;;3.40;3.10;;;6.00;99.90;;;;;;5099432;28;20199;-82
2020/12/25 12:01:19;;;;;;;7.47;4.60;;;6.00;99.90;;;;;;5100406;28;20482;-84
2020/12/25 12:03:47;;;;;;;2.90;2.70;;;6.00;99.90;;;;;;5100468;28;20401;-84
2020/12/25 12:06:23;;;;;;;2.90;2.60;;;6.00;99.90;;;;;;5116260;28;20155;-82
2020/12/25 12:08:49;;;;;;;2.63;2.40;;;6.00;99.90;;;;;;5108348;28;20824;-83
2020/12/25 12:11:15;;;;;;;3.43;3.13;;;5.80;99.90;;;;;;5102312;28;20447;-83
2020/12/25 12:13:41;;;;;;;3.47;2.50;;;5.70;99.90;;;;;;5101854;28;20368;-83
2020/12/25 12:16:15;;;;;;;4.13;1.50;;;5.70;99.90;;;;;;5102291;28;20579;-84
2020/12/25 12:18:41;;;;;;;4.27;2.90;;;5.70;99.90;;;;;;5100000;28;20542;-83
2020/12/25 12:21:09;;;;;;;4.00;3.17;;;5.80;99.90;;;;;;5099062;28;20459;-82
2020/12/25 12:23:35;;;;;;;2.90;2.53;;;5.90;99.90;;;;;;5098462;28;20389;-83
2020/12/25 12:26:01;;;;;;;3.17;2.20;;;6.00;99.90;;;;;;5080438;28;20385;-83
2020/12/25 12:28:26;;;;;;;6.83;5.40;;;6.00;99.90;;;;;;5099149;28;20403;-83
2020/12/25 12:30:52;;;;;;;4.63;3.90;;;5.90;99.90;;;;;;5080895;28;20151;-83
2020/12/25 12:33:18;;;;;;;5.13;2.50;;;5.90;99.90;;;;;;5098237;28;20166;-82
2020/12/25 12:35:44;;;;;;;5.33;2.27;;;5.90;99.90;;;;;;5098040;28;20254;-83
2020/12/25 12:38:09;;;;;;;4.23;2.80;;;5.90;99.90;;;;;;5079978;28;20645;-83
2020/12/25 12:40:35;;;;;;;2.00;1.90;;;5.90;99.90;;;;;;5080094;28;20202;-83
2020/12/25 12:43:01;;;;;;;2.87;2.57;;;6.00;99.90;;;;;;5097985;28;20622;-82
2020/12/25 12:45:27;;;;;;;3.20;1.80;;;6.00;99.90;;;;;;5099593;28;20567;-82
2020/12/25 12:47:52;;;;;;;2.40;2.20;;;6.00;99.90;;;;;;5080476;28;20609;-83
2020/12/25 12:50:18;;;;;;;2.57;2.00;;;6.00;99.90;;;;;;5079776;28;20170;-83
2020/12/25 12:52:47;;;;;;;1.60;1.50;;;6.00;99.90;;;;;;5099276;28;20179;-82
2020/12/25 12:55:12;;;;;;;6.07;2.27;;;5.90;99.90;;;;;;5098150;28;20457;-83